createdAt,value
2022-11-30T00:00:30.227Z,91.78
2022-11-30T00:03:02.720Z,87.07
2022-11-30T00:05:32.898Z,84.13
2022-11-30T00:08:03.987Z,86.32
2022-11-30T00:10:33.803Z,83.70
2022-11-30T00:13:03.659Z,88.55
2022-11-30T00:15:33.557Z,90.88
2022-11-30T00:18:06.159Z,82.85
2022-11-30T00:20:36.017Z,93.68
2022-11-30T00:23:05.858Z,83.50
2022-11-30T00:25:35.682Z,90.07
2022-11-30T00:28:05.511Z,89.53
2022-11-30T00:30:35.374Z,85.05
2022-11-30T00:33:07.817Z,86.57
2022-11-30T00:35:37.676Z,84.55
2022-11-30T00:38:07.499Z,89.85
2022-11-30T00:40:37.360Z,92.00
2022-11-30T00:43:07.208Z,88.72
2022-11-30T00:45:37.049Z,84.43
2022-11-30T00:48:09.590Z,87.28
2022-11-30T00:50:39.444Z,95.25
2022-11-30T00:53:09.347Z,80.85
2022-11-30T00:55:39.187Z,92.05
2022-11-30T00:58:09.365Z,96.45
2022-11-30T01:00:39.573Z,93.57
2022-11-30T01:03:12.802Z,89.57
2022-11-30T01:05:43.271Z,90.03
2022-11-30T01:08:15.676Z,95.57
2022-11-30T01:10:47.709Z,85.00
2022-11-30T01:13:18.658Z,93.80
2022-11-30T01:15:48.652Z,89.03
2022-11-30T01:18:21.103Z,92.65
2022-11-30T01:20:50.935Z,83.93
2022-11-30T01:23:20.781Z,92.00
2022-11-30T01:25:57.573Z,100.30
2022-11-30T01:28:27.412Z,98.78
2022-11-30T01:31:01.046Z,87.45
2022-11-30T01:33:33.999Z,95.72
2022-11-30T01:36:05.934Z,83.75
2022-11-30T01:38:37.442Z,92.65
2022-11-30T01:41:09.220Z,87.63
2022-11-30T01:43:47.635Z,89.35
2022-11-30T01:46:37.846Z,83.70
2022-11-30T01:49:21.904Z,89.72
2022-11-30T01:51:56.519Z,86.18
2022-11-30T01:54:32.663Z,91.82
2022-11-30T01:57:07.351Z,91.13
2022-11-30T01:59:37.515Z,86.68
2022-11-30T02:02:07.444Z,92.80
2022-11-30T02:04:41.398Z,94.25
2022-11-30T02:07:12.275Z,96.03
2022-11-30T02:09:47.055Z,94.05
2022-11-30T02:17:32.977Z,96.15
2022-11-30T02:20:36.955Z,86.65
2022-11-30T02:23:27.958Z,95.07
2022-11-30T02:26:10.017Z,91.88
2022-11-30T02:29:06.942Z,91.85
2022-11-30T02:31:45.483Z,97.82
2022-11-30T02:34:18.711Z,88.18
2022-11-30T02:36:50.417Z,100.40
2022-11-30T02:39:23.499Z,101.20
2022-11-30T02:41:53.354Z,92.45
2022-11-30T02:44:27.130Z,91.10
2022-11-30T02:47:20.395Z,95.60
2022-11-30T02:49:58.554Z,94.13
2022-11-30T02:52:31.838Z,90.25
2022-11-30T02:55:06.475Z,94.18
2022-11-30T02:57:36.947Z,92.40
2022-11-30T03:00:13.626Z,93.65
2022-11-30T03:02:44.505Z,93.07
2022-11-30T03:05:14.413Z,83.78
2022-11-30T03:07:44.280Z,89.70
2022-11-30T03:10:14.482Z,93.93
2022-11-30T03:12:44.351Z,83.80
2022-11-30T03:15:17.170Z,92.55
2022-11-30T03:17:47.017Z,90.00
2022-11-30T03:20:16.923Z,95.28
2022-11-30T03:22:46.774Z,90.75
2022-11-30T03:25:16.634Z,91.82
2022-11-30T03:27:46.513Z,91.53
2022-11-30T03:30:19.532Z,97.57
2022-11-30T03:32:49.438Z,90.10
2022-11-30T03:35:19.458Z,95.07
2022-11-30T03:37:50.704Z,87.57
2022-11-30T03:40:20.701Z,94.95
2022-11-30T03:42:50.526Z,91.10
2022-11-30T03:45:23.038Z,90.75
2022-11-30T03:47:52.905Z,88.38
2022-11-30T03:50:22.909Z,102.63
2022-11-30T03:52:53.066Z,96.15
2022-11-30T03:55:22.900Z,95.25
2022-11-30T03:57:52.723Z,98.35
2022-11-30T04:00:25.619Z,96.30
2022-11-30T04:02:55.502Z,96.28
2022-11-30T04:05:25.344Z,101.78
2022-11-30T04:07:55.237Z,97.40
2022-11-30T04:10:25.570Z,95.68
2022-11-30T04:12:55.426Z,94.00
2022-11-30T04:15:27.879Z,89.70
2022-11-30T04:17:57.698Z,89.80
2022-11-30T04:20:27.599Z,98.90
2022-11-30T04:23:00.285Z,102.35
2022-11-30T04:25:30.169Z,93.30
2022-11-30T04:28:00.038Z,105.85
2022-11-30T04:30:32.470Z,100.25
2022-11-30T04:33:02.381Z,99.78
2022-11-30T04:35:32.561Z,98.28
2022-11-30T04:38:02.904Z,95.63
2022-11-30T04:40:32.744Z,92.05
2022-11-30T04:43:02.567Z,93.95
2022-11-30T04:45:35.709Z,97.70
2022-11-30T04:48:06.475Z,98.47
2022-11-30T04:50:36.525Z,93.35
2022-11-30T04:53:06.717Z,94.03
2022-11-30T04:55:36.745Z,92.28
2022-11-30T04:58:06.609Z,93.43
2022-11-30T05:00:40.026Z,99.63
2022-11-30T05:03:09.857Z,98.45
2022-11-30T05:05:39.711Z,102.80
2022-11-30T05:08:09.794Z,103.72
2022-11-30T05:10:39.676Z,95.05
2022-11-30T05:13:09.517Z,91.75
2022-11-30T05:15:41.906Z,99.78
2022-11-30T05:18:11.737Z,104.45
2022-11-30T05:20:41.611Z,94.97
2022-11-30T05:23:11.453Z,93.75
2022-11-30T05:25:41.677Z,104.88
2022-11-30T05:28:11.539Z,101.30
2022-11-30T05:30:45.745Z,96.32
2022-11-30T05:33:15.915Z,103.95
2022-11-30T05:35:46.416Z,100.88
2022-11-30T05:38:16.246Z,96.00
2022-11-30T05:40:46.075Z,93.30
2022-11-30T05:43:15.984Z,90.30
2022-11-30T05:45:48.466Z,100.47
2022-11-30T05:48:18.324Z,102.90
2022-11-30T05:50:48.201Z,97.40
2022-11-30T05:53:18.030Z,103.85
2022-11-30T05:55:48.455Z,98.32
2022-11-30T05:58:18.284Z,101.35
2022-11-30T06:00:50.749Z,96.95
2022-11-30T06:03:20.678Z,99.75
2022-11-30T06:05:53.987Z,99.63
2022-11-30T06:08:24.147Z,96.38
2022-11-30T06:10:54.166Z,94.20
2022-11-30T06:13:28.723Z,94.38
2022-11-30T06:16:04.899Z,101.05
2022-11-30T06:18:35.473Z,102.55
2022-11-30T06:21:07.999Z,100.78
2022-11-30T06:23:38.690Z,95.15
2022-11-30T06:26:11.022Z,94.32
2022-11-30T06:28:45.406Z,96.97
2022-11-30T06:31:20.530Z,94.60
2022-11-30T06:33:50.403Z,104.53
2022-11-30T06:36:24.823Z,94.88
2022-11-30T06:38:55.074Z,94.50
2022-11-30T06:41:25.013Z,101.35
2022-11-30T06:43:55.097Z,93.35
2022-11-30T06:46:27.722Z,95.95
2022-11-30T06:48:57.560Z,96.10
2022-11-30T06:51:27.358Z,93.25
2022-11-30T06:53:57.218Z,97.15
2022-11-30T06:56:27.056Z,103.00
2022-11-30T06:58:56.898Z,96.45
2022-11-30T07:01:29.343Z,107.20
2022-11-30T07:04:01.960Z,93.63
2022-11-30T07:06:32.298Z,104.90
2022-11-30T07:09:02.117Z,91.88
2022-11-30T07:11:32.586Z,106.38
2022-11-30T07:14:03.491Z,105.72
2022-11-30T07:16:35.947Z,96.55
2022-11-30T07:19:05.909Z,97.90
2022-11-30T07:21:35.763Z,95.47
2022-11-30T07:24:18.443Z,91.75
2022-11-30T07:26:48.287Z,102.05
2022-11-30T07:29:18.119Z,96.55
2022-11-30T07:31:54.107Z,98.13
2022-11-30T07:34:25.021Z,97.75
2022-11-30T07:36:54.973Z,104.95
2022-11-30T07:39:25.308Z,97.22
2022-11-30T07:41:55.122Z,106.65
2022-11-30T07:44:24.956Z,98.13
2022-11-30T07:46:57.346Z,96.85
2022-11-30T07:49:27.218Z,94.13
2022-11-30T07:51:57.070Z,103.70
2022-11-30T07:54:27.802Z,107.05
2022-11-30T07:56:57.673Z,98.50
2022-11-30T07:59:27.525Z,97.05
2022-11-30T08:02:00.603Z,94.72
2022-11-30T08:04:30.551Z,93.95
2022-11-30T08:07:00.450Z,99.15
2022-11-30T08:09:30.455Z,99.93
2022-11-30T08:12:00.318Z,101.85
2022-11-30T08:14:30.169Z,95.07
2022-11-30T08:17:02.891Z,98.80
2022-11-30T08:19:32.744Z,99.85
2022-11-30T08:22:02.613Z,93.55
2022-11-30T08:24:32.536Z,96.75
2022-11-30T08:27:02.510Z,98.13
2022-11-30T08:29:32.344Z,96.22
2022-11-30T08:32:04.781Z,100.80
2022-11-30T08:34:34.710Z,96.70
2022-11-30T08:37:04.534Z,99.15
2022-11-30T08:39:34.642Z,93.85
2022-11-30T08:42:05.199Z,95.40
2022-11-30T08:44:35.012Z,93.50
2022-11-30T08:47:07.627Z,90.45
2022-11-30T08:49:37.472Z,94.63
2022-11-30T08:52:16.971Z,97.57
2022-11-30T08:54:49.290Z,89.25
2022-11-30T08:57:20.556Z,103.80
2022-11-30T08:59:50.903Z,88.25
2022-11-30T09:02:23.467Z,94.53
2022-11-30T09:04:53.654Z,93.75
2022-11-30T09:07:23.532Z,92.50
2022-11-30T09:09:53.447Z,94.22
2022-11-30T09:12:23.320Z,98.45
2022-11-30T09:14:58.019Z,93.22
2022-11-30T09:17:31.121Z,92.63
2022-11-30T09:20:00.984Z,96.57
2022-11-30T09:22:31.389Z,94.53
2022-11-30T09:25:01.225Z,99.65
2022-11-30T09:27:32.406Z,94.57
2022-11-30T09:30:02.459Z,93.05
2022-11-30T09:32:34.864Z,96.15
2022-11-30T09:35:08.602Z,93.78
2022-11-30T09:37:41.575Z,97.25
2022-11-30T09:40:14.659Z,88.53
2022-11-30T09:43:00.483Z,93.32
2022-11-30T09:45:34.445Z,89.88
2022-11-30T09:48:30.553Z,88.27
2022-11-30T09:51:09.087Z,97.15
2022-11-30T09:53:44.569Z,91.22
2022-11-30T09:56:26.314Z,89.85
2022-11-30T09:59:01.260Z,88.60
2022-11-30T10:01:33.039Z,90.60
2022-11-30T10:04:05.906Z,92.30
2022-11-30T10:06:48.606Z,87.13
2022-11-30T10:09:41.945Z,95.18
2022-11-30T10:12:20.469Z,87.20
2022-11-30T10:15:12.646Z,91.28
2022-11-30T10:17:50.015Z,96.85
2022-11-30T10:20:43.895Z,89.00
2022-11-30T10:23:34.732Z,90.32
2022-11-30T10:26:10.141Z,96.65
2022-11-30T10:28:52.524Z,87.47
2022-11-30T10:31:28.118Z,86.35
2022-11-30T10:34:05.805Z,85.95
2022-11-30T10:36:43.369Z,91.15
2022-11-30T10:39:20.682Z,91.22
2022-11-30T10:41:56.431Z,81.65
2022-11-30T10:44:31.846Z,81.45
2022-11-30T10:47:07.764Z,98.28
2022-11-30T10:49:39.135Z,88.03
2022-11-30T10:52:13.036Z,84.47
2022-11-30T10:54:42.877Z,84.33
2022-11-30T10:57:14.528Z,78.90
2022-11-30T10:59:49.031Z,78.75
2022-11-30T11:02:41.087Z,85.07
2022-11-30T11:05:21.828Z,82.93
2022-11-30T11:08:04.713Z,80.68
2022-11-30T11:10:39.364Z,85.10
2022-11-30T11:13:17.898Z,82.90
2022-11-30T11:16:01.438Z,92.03
2022-11-30T11:18:33.641Z,92.15
2022-11-30T11:21:07.693Z,81.15
2022-11-30T11:23:43.616Z,92.35
2022-11-30T11:26:21.889Z,91.13
2022-11-30T11:28:54.646Z,103.88
2022-11-30T11:31:38.585Z,101.15
2022-11-30T11:34:25.888Z,94.90
2022-11-30T11:37:09.604Z,81.40
2022-11-30T11:39:42.035Z,106.07
2022-11-30T11:42:22.094Z,103.90
2022-11-30T11:44:55.305Z,103.28
2022-11-30T11:47:29.395Z,95.07
2022-11-30T11:51:05.112Z,99.22
2022-11-30T11:53:27.864Z,104.20
2022-11-30T11:56:13.141Z,108.45
2022-11-30T11:58:48.248Z,99.80
2022-11-30T12:01:39.644Z,99.43
2022-11-30T12:04:34.205Z,105.07
2022-11-30T12:07:20.261Z,96.30
2022-11-30T12:10:43.204Z,94.78
2022-11-30T12:13:02.684Z,103.68
2022-11-30T12:15:42.255Z,95.30
2022-11-30T12:18:24.022Z,105.90
2022-11-30T12:21:01.648Z,99.22
2022-11-30T12:24:05.254Z,101.25
2022-11-30T12:26:43.523Z,107.65
2022-11-30T12:29:46.361Z,96.35
2022-11-30T12:32:32.878Z,94.20
2022-11-30T12:35:19.523Z,88.05
2022-11-30T12:38:01.786Z,94.18
2022-11-30T12:40:40.962Z,98.85
2022-11-30T12:43:26.138Z,96.68
2022-11-30T12:48:41.376Z,98.75
2022-11-30T12:51:28.053Z,106.53
2022-11-30T12:54:19.200Z,102.28
2022-11-30T12:56:55.359Z,97.97
2022-11-30T12:59:33.802Z,106.70
2022-11-30T13:02:40.787Z,107.82
2022-11-30T13:05:14.630Z,100.72
2022-11-30T13:07:48.192Z,105.40
2022-11-30T13:10:29.415Z,105.18
2022-11-30T13:13:01.096Z,103.38
2022-11-30T13:15:34.186Z,110.68
2022-11-30T13:18:09.142Z,100.45
2022-11-30T13:20:45.381Z,105.38
2022-11-30T13:23:23.293Z,104.28
2022-11-30T13:26:08.680Z,122.47
2022-11-30T13:29:16.305Z,116.65
2022-11-30T13:31:53.900Z,111.40
2022-11-30T13:34:32.869Z,112.20
2022-11-30T13:37:08.541Z,107.35
2022-11-30T13:39:49.779Z,115.78
2022-11-30T13:42:39.534Z,106.03
2022-11-30T13:45:35.014Z,112.85
2022-11-30T13:50:53.108Z,122.47
2022-11-30T13:53:34.044Z,125.38
2022-11-30T13:56:10.493Z,129.25
2022-11-30T13:59:30.602Z,127.90
2022-11-30T14:03:00.817Z,116.82
2022-11-30T14:05:44.754Z,113.75
2022-11-30T14:08:41.637Z,115.07
2022-11-30T14:11:41.973Z,116.88
2022-11-30T14:14:45.759Z,121.50
2022-11-30T14:17:20.873Z,112.40
2022-11-30T14:22:26.763Z,115.97
2022-11-30T14:24:58.078Z,125.38
2022-11-30T14:27:30.594Z,126.72
2022-11-30T14:30:06.728Z,116.07
2022-11-30T14:32:43.551Z,128.73
2022-11-30T14:35:17.442Z,134.35
2022-11-30T14:37:57.282Z,131.33
2022-11-30T14:40:30.402Z,125.18
2022-11-30T14:43:02.827Z,113.50
2022-11-30T14:45:36.611Z,122.55
2022-11-30T14:48:14.429Z,129.35
2022-11-30T14:50:46.785Z,116.07
2022-11-30T14:53:33.475Z,113.13
2022-11-30T14:56:11.270Z,117.45
2022-11-30T14:58:48.655Z,112.90
2022-11-30T15:01:22.224Z,115.30
2022-11-30T15:03:54.151Z,116.45
2022-11-30T15:06:31.445Z,122.97
2022-11-30T15:09:05.315Z,114.60
2022-11-30T15:11:35.294Z,120.80
2022-11-30T15:14:13.174Z,118.78
2022-11-30T15:16:50.939Z,124.10
2022-11-30T15:19:26.535Z,122.05
2022-11-30T15:21:58.343Z,117.57
2022-11-30T15:24:31.857Z,112.18
2022-11-30T15:27:10.295Z,117.45
2022-11-30T15:29:45.840Z,125.18
2022-11-30T15:32:21.300Z,117.82
2022-11-30T15:34:56.829Z,126.75
2022-11-30T15:37:32.794Z,130.98
2022-11-30T15:40:09.279Z,132.70
2022-11-30T15:42:43.706Z,129.02
2022-11-30T15:45:20.240Z,119.18
2022-11-30T15:47:50.182Z,118.75
2022-11-30T15:50:43.686Z,136.23
2022-11-30T15:53:53.485Z,124.10
2022-11-30T15:56:30.841Z,121.80
2022-11-30T15:59:07.266Z,113.65
2022-11-30T16:02:02.241Z,120.28
2022-11-30T16:05:13.914Z,118.97
2022-11-30T16:07:53.377Z,109.22
2022-11-30T16:10:26.759Z,114.35
2022-11-30T16:12:59.299Z,131.07
2022-11-30T16:15:32.290Z,111.20
2022-11-30T16:18:11.290Z,110.28
2022-11-30T16:20:41.177Z,118.75
2022-11-30T16:23:15.375Z,118.88
2022-11-30T16:25:46.883Z,109.60
2022-11-30T16:28:21.874Z,120.50
2022-11-30T16:30:52.376Z,110.25
2022-11-30T16:33:25.184Z,105.30
2022-11-30T16:35:59.518Z,109.72
2022-11-30T16:38:30.801Z,117.93
2022-11-30T16:41:17.499Z,115.57
2022-11-30T16:43:52.089Z,105.13
2022-11-30T16:46:24.429Z,107.82
2022-11-30T16:48:54.975Z,110.72
2022-11-30T16:51:27.958Z,116.85
2022-11-30T16:53:58.604Z,117.45
2022-11-30T16:56:28.655Z,102.88
2022-11-30T16:59:01.131Z,118.10
2022-11-30T17:01:36.519Z,116.07
2022-11-30T17:04:13.920Z,120.28
2022-11-30T17:06:46.991Z,108.97
2022-11-30T17:09:20.534Z,114.93
2022-11-30T17:11:53.095Z,111.15
2022-11-30T17:14:25.538Z,125.10
2022-11-30T17:16:55.555Z,108.45
2022-11-30T17:19:25.418Z,112.93
2022-11-30T17:21:55.563Z,120.78
2022-11-30T17:24:25.486Z,113.82
2022-11-30T17:26:55.405Z,111.43
2022-11-30T17:29:27.834Z,98.57
2022-11-30T17:31:57.667Z,115.78
2022-11-30T17:34:27.522Z,111.78
2022-11-30T17:36:57.778Z,110.88
2022-11-30T17:39:27.702Z,108.75
2022-11-30T17:41:57.537Z,113.57
2022-11-30T17:44:29.954Z,111.97
2022-11-30T17:47:00.562Z,98.75
2022-11-30T17:49:30.424Z,116.10
2022-11-30T17:52:00.261Z,97.13
2022-11-30T17:54:30.154Z,88.38
2022-11-30T17:56:59.991Z,98.00
2022-11-30T17:59:32.418Z,99.03
2022-11-30T18:02:02.446Z,99.47
2022-11-30T18:04:32.372Z,104.53
2022-11-30T18:07:02.202Z,99.80
2022-11-30T18:09:37.832Z,101.75
2022-11-30T18:12:11.661Z,97.38
2022-11-30T18:14:44.071Z,101.25
2022-11-30T18:17:13.909Z,100.32
2022-11-30T18:19:43.726Z,95.25
2022-11-30T18:22:13.587Z,96.10
2022-11-30T18:24:43.409Z,103.18
2022-11-30T18:27:13.341Z,94.15
2022-11-30T18:29:45.802Z,92.32
2022-11-30T18:32:15.802Z,93.20
2022-11-30T18:34:49.237Z,96.07
2022-11-30T18:37:19.578Z,92.72
2022-11-30T18:39:49.450Z,92.57
2022-11-30T18:42:19.498Z,100.68
2022-11-30T18:44:51.918Z,101.35
2022-11-30T18:47:21.755Z,102.95
2022-11-30T18:49:51.592Z,100.28
2022-11-30T18:52:21.426Z,100.05
2022-11-30T18:54:51.367Z,93.00
2022-11-30T18:57:21.258Z,94.68
2022-11-30T18:59:54.466Z,106.25
2022-11-30T19:02:24.386Z,98.90
2022-11-30T19:04:54.411Z,95.22
2022-11-30T19:07:24.266Z,102.43
2022-11-30T19:09:54.303Z,104.15
2022-11-30T19:12:24.147Z,99.38
2022-11-30T19:14:56.859Z,89.82
2022-11-30T19:17:26.779Z,104.30
2022-11-30T19:19:56.622Z,108.53
2022-11-30T19:22:30.147Z,106.35
2022-11-30T19:25:00.002Z,106.38
2022-11-30T19:27:29.890Z,103.53
2022-11-30T19:30:02.580Z,111.30
2022-11-30T19:32:32.425Z,110.88
2022-11-30T19:35:02.264Z,103.47
2022-11-30T19:37:32.087Z,108.95
2022-11-30T19:40:01.886Z,103.40
2022-11-30T19:42:33.299Z,110.13
2022-11-30T19:45:05.769Z,112.03
2022-11-30T19:47:37.293Z,90.00
2022-11-30T19:50:08.284Z,101.90
2022-11-30T19:52:38.153Z,101.57
2022-11-30T19:55:09.905Z,97.38
2022-11-30T19:57:39.951Z,106.53
2022-11-30T20:00:14.970Z,93.10
2022-11-30T20:02:44.875Z,95.70
2022-11-30T20:05:14.748Z,91.00
2022-11-30T20:07:44.653Z,99.90
2022-11-30T20:10:16.806Z,97.95
2022-11-30T20:12:46.622Z,102.90
2022-11-30T20:15:19.135Z,109.40
2022-11-30T20:17:48.982Z,111.15
2022-11-30T20:20:19.023Z,104.57
2022-11-30T20:22:48.835Z,107.53
2022-11-30T20:25:20.052Z,106.85
2022-11-30T20:27:50.061Z,104.38
2022-11-30T20:30:22.813Z,115.45
2022-11-30T20:32:52.783Z,100.55
2022-11-30T20:35:22.594Z,103.03
2022-11-30T20:37:52.494Z,104.78
2022-11-30T20:40:22.483Z,109.78
2022-11-30T20:42:54.390Z,109.90
2022-11-30T20:45:26.780Z,107.30
2022-11-30T20:47:56.622Z,95.75
2022-11-30T20:50:26.615Z,110.20
2022-11-30T20:52:56.485Z,103.93
2022-11-30T20:55:26.298Z,96.45
2022-11-30T20:57:56.136Z,91.85
2022-11-30T21:00:28.790Z,96.28
2022-11-30T21:02:58.900Z,89.78
2022-11-30T21:05:29.457Z,100.53
2022-11-30T21:07:59.358Z,98.03
2022-11-30T21:10:29.243Z,102.30
2022-11-30T21:12:59.099Z,96.03
2022-11-30T21:15:31.572Z,98.78
2022-11-30T21:18:01.471Z,94.35
2022-11-30T21:20:31.343Z,93.57
2022-11-30T21:23:01.159Z,86.55
2022-11-30T21:25:31.009Z,101.15
2022-11-30T21:28:00.822Z,83.65
2022-11-30T21:30:33.507Z,94.95
2022-11-30T21:33:03.364Z,82.38
2022-11-30T21:35:33.200Z,88.97
2022-11-30T21:38:03.039Z,83.38
2022-11-30T21:40:32.904Z,89.28
2022-11-30T21:43:02.754Z,78.25
2022-11-30T21:45:35.233Z,84.78
2022-11-30T21:48:05.056Z,80.00
2022-11-30T21:50:34.885Z,80.10
2022-11-30T21:53:04.752Z,89.28
2022-11-30T21:55:36.560Z,89.07
2022-11-30T21:58:06.394Z,86.03
2022-11-30T22:00:38.837Z,85.38
2022-11-30T22:03:08.764Z,89.95
2022-11-30T22:05:38.659Z,81.97
2022-11-30T22:08:08.642Z,84.70
2022-11-30T22:10:38.546Z,91.85
2022-11-30T22:13:08.393Z,93.25
2022-11-30T22:15:40.819Z,91.70
2022-11-30T22:18:10.683Z,91.38
2022-11-30T22:20:40.778Z,93.38
2022-11-30T22:23:10.627Z,88.55
2022-11-30T22:25:40.458Z,86.65
2022-11-30T22:28:10.288Z,90.18
2022-11-30T22:30:43.358Z,95.45
2022-11-30T22:33:13.218Z,83.22
2022-11-30T22:35:46.044Z,80.30
2022-11-30T22:38:16.451Z,90.60
2022-11-30T22:40:46.301Z,95.20
2022-11-30T22:43:16.114Z,89.00
2022-11-30T22:45:48.525Z,89.95
2022-11-30T22:48:18.354Z,101.40
2022-11-30T22:50:48.241Z,102.97
2022-11-30T22:53:18.087Z,89.70
2022-11-30T22:55:48.370Z,91.05
2022-11-30T22:58:18.396Z,95.18
2022-11-30T23:00:50.857Z,89.82
2022-11-30T23:03:20.804Z,88.53
2022-11-30T23:05:50.686Z,86.28
2022-11-30T23:08:20.560Z,84.30
2022-11-30T23:10:50.426Z,86.55
2022-11-30T23:13:20.262Z,86.35
2022-11-30T23:15:54.233Z,83.82
2022-11-30T23:18:24.107Z,87.32
2022-11-30T23:20:54.095Z,85.07
2022-11-30T23:23:24.099Z,87.35
2022-11-30T23:25:53.941Z,83.40
2022-11-30T23:28:23.798Z,94.97
2022-11-30T23:30:56.209Z,84.07
2022-11-30T23:33:26.047Z,80.05
2022-11-30T23:35:55.950Z,87.47
2022-11-30T23:38:25.787Z,92.03
2022-11-30T23:40:55.622Z,86.90
2022-11-30T23:43:25.456Z,83.57
2022-11-30T23:45:57.871Z,84.28
2022-11-30T23:48:28.143Z,87.20
2022-11-30T23:50:58.420Z,96.78
2022-11-30T23:53:28.921Z,93.38
2022-11-30T23:55:59.428Z,89.05
2022-11-30T23:58:29.308Z,86.78
